Hawaiian Chieftain — WDC8751 — position and weather

sailwx.info

Track history (hours):
 
Tides and Currents Weather Stations Pressure Air Temp Water Temp Dewpoint Dewpoint Depression Visibility Wind Speed Wind Dir Waves Ship Positions

Hawaiian Chieftain (United States)

Operated briefly as "Spirt of Larinda". When she sailed from Sausalito, California, callsign was WAA7737.

Ship's website: http://www.historicalseaport.org/HawaiianChieftain.htm

Owner: GRAYS HARBOR HISTORICAL SEAPORT AUTHORITY, ABERDEEN, WA. More information available from US FCC via Universal Licensing System and Coast Guard Vessel Documentation Center.

Last reported at 2019-Apr-25 00:35 UTC. Time now 2019-Apr-25 11:47 UTC.
Position N 38°20' W 123°03'.

Length 20 m.

Type: Sailing vessel. MMSI: 367092520.

Date/timePositionNaut miles runAvg speedWind from/ knotsBaromVisibWave heightAir tempDewpointWater temp
2019-Apr-25 00:35N 38°20' W 123°03'0 0.0
2019-Apr-25 00:29N 38°20' W 123°03'0 0.0
2019-Apr-24 23:53N 38°20' W 123°03'0 0.0
2019-Apr-24 23:29N 38°20' W 123°03'0 0.0
2019-Apr-24 22:41N 38°20' W 123°03'0 0.0
2019-Apr-24 22:29N 38°20' W 123°03'0 0.0
2019-Apr-24 21:59N 38°20' W 123°03'0 0.0
2019-Apr-24 21:17N 38°20' W 123°03'0 0.0
2019-Apr-24 20:41N 38°20' W 123°03'0 0.0
2019-Apr-24 20:29N 38°20' W 123°03'0 0.0
2019-Apr-24 19:59N 38°20' W 123°03'0 0.0
2019-Apr-24 19:29N 38°20' W 123°03'0 0.0
2019-Apr-24 18:35N 38°20' W 123°03'0 0.0
2019-Apr-24 18:23N 38°20' W 123°03'0 0.0
2019-Apr-24 16:05N 38°20' W 123°03'0 0.2
2019-Apr-24 16:00N 38°20' W 123°03'2 3.0
2019-Apr-24 15:30N 38°18' W 123°03'2 3.2
2019-Apr-24 14:59N 38°17' W 123°03'3 6.2
2019-Apr-24 14:30N 38°18' W 123°07'3 6.0
2019-Apr-24 14:00N 38°20' W 123°09'3 6.4
2019-Apr-24 13:30N 38°22' W 123°13'3 6.3
2019-Apr-24 13:00N 38°23' W 123°16'4 1.9
2019-Apr-24 10:47N 38°25' W 123°21'1 3.0
2019-Apr-24 10:30N 38°24' W 123°21'1 2.8
2019-Apr-24 10:00N 38°23' W 123°20'2 3.1
2019-Apr-24 09:28N 38°21' W 123°20'2 3.0
2019-Apr-24 08:52N 38°20' W 123°19'1 3.3
2019-Apr-24 08:26N 38°19' W 123°18'2 3.6
2019-Apr-24 08:00N 38°17' W 123°17'2 3.7
2019-Apr-24 07:30N 38°15' W 123°16'2 3.4
2019-Apr-24 07:00N 38°14' W 123°15'2 3.8
2019-Apr-24 06:30N 38°12' W 123°14'3 3.7
2019-Apr-24 05:44N 38°10' W 123°13'1 3.9
2019-Apr-24 05:25N 38°09' W 123°12'2 4.1
2019-Apr-24 05:00N 38°08' W 123°10'2 3.6
2019-Apr-24 04:29N 38°06' W 123°08'3 4.1
2019-Apr-24 03:52N 38°04' W 123°06'2 4.7
2019-Apr-24 03:29N 38°03' W 123°06'3 4.4
2019-Apr-24 02:52N 38°00' W 123°04'2 4.6
2019-Apr-24 02:27N 37°59' W 123°03'2 4.2
2019-Apr-24 01:59N 37°57' W 123°02'2 4.7
2019-Apr-24 01:28N 37°56' W 122°59'3 5.4
2019-Apr-24 00:54N 37°55' W 122°55'3 5.2
2019-Apr-24 00:23N 37°54' W 122°52'13 5.0
2019-Apr-23 21:43N 37°48' W 122°37'1 4.1
2019-Apr-23 21:23N 37°48' W 122°35'2 6.0
2019-Apr-23 21:00N 37°48' W 122°32'3 5.2
2019-Apr-23 20:30N 37°49' W 122°29'2 3.5
2019-Apr-23 20:00N 37°49' W 122°27'3 5.2
2019-Apr-23 19:30N 37°49' W 122°24'2 3.8
2019-Apr-23 19:00N 37°48' W 122°22'3 5.4
2019-Apr-23 18:30N 37°48' W 122°18'1 2.9
2019-Apr-23 18:00N 37°48' W 122°17'0 0.0
2019-Apr-23 17:27N 37°48' W 122°17'0 0.0
2019-Apr-23 16:51N 37°48' W 122°17'0 0.3
2019-Apr-23 16:13N 37°48' W 122°17'0 0.0
2019-Apr-23 15:28N 37°48' W 122°17'0 0.0
2019-Apr-23 14:46N 37°48' W 122°17'0 0.0
2019-Apr-23 14:25N 37°48' W 122°17'0 0.0
2019-Apr-23 13:52N 37°48' W 122°17'0 0.0
2019-Apr-23 12:46N 37°48' W 122°17'0 0.0
2019-Apr-23 12:22N 37°48' W 122°17'0 0.0
2019-Apr-23 11:55N 37°48' W 122°17'0 0.0
2019-Apr-23 11:22N 37°48' W 122°17'0 0.0
2019-Apr-23 10:55N 37°48' W 122°17'0 0.0
2019-Apr-23 10:25N 37°48' W 122°17'0 0.0
2019-Apr-23 09:40N 37°48' W 122°17'0 0.0
2019-Apr-23 09:19N 37°48' W 122°17'0 0.0
2019-Apr-23 08:43N 37°48' W 122°17'0 0.0
2019-Apr-23 08:25N 37°48' W 122°17'0 0.0
2019-Apr-23 07:55N 37°48' W 122°17'0 0.0
2019-Apr-23 07:19N 37°48' W 122°17'0 0.0
2019-Apr-23 06:49N 37°48' W 122°17'0 0.0
2019-Apr-23 06:07N 37°48' W 122°17'0 0.0
2019-Apr-23 05:43N 37°48' W 122°17'0 0.0
2019-Apr-23 05:19N 37°48' W 122°17'0 0.0
2019-Apr-23 04:40N 37°48' W 122°17'0 0.0
2019-Apr-23 04:25N 37°48' W 122°17'0 0.0
2019-Apr-23 03:49N 37°48' W 122°17'0 0.0
2019-Apr-23 03:07N 37°48' W 122°17'0 0.0
2019-Apr-23 02:55N 37°48' W 122°17'0 0.0
2019-Apr-23 02:25N 37°48' W 122°17'0 0.0
2019-Apr-23 01:49N 37°48' W 122°17'0 0.0
2019-Apr-23 01:25N 37°48' W 122°17'0 0.0
2019-Apr-23 00:58N 37°48' W 122°17'0 0.0
2019-Apr-23 00:28N 37°48' W 122°17'0 0.0
2019-Apr-22 23:55N 37°48' W 122°17'0 0.0
2019-Apr-22 23:16N 37°48' W 122°17'0 0.0
2019-Apr-22 22:58N 37°48' W 122°17'0 0.0
2019-Apr-22 21:49N 37°48' W 122°17'0 0.0
2019-Apr-22 21:13N 37°48' W 122°17'0 0.0
2019-Apr-22 20:49N 37°48' W 122°17'0 0.0
2019-Apr-22 20:28N 37°48' W 122°17'0 0.0
2019-Apr-22 19:19N 37°48' W 122°17'0 0.0
2019-Apr-22 18:55N 37°48' W 122°17'0 0.0
2019-Apr-22 18:13N 37°48' W 122°17'0 0.0
2019-Apr-22 17:58N 37°48' W 122°17'0 0.0
2019-Apr-22 16:31N 37°48' W 122°17'0 0.0
2019-Apr-22 16:10N 37°48' W 122°17'0 0.0
2019-Apr-22 15:52N 37°48' W 122°17'0 0.0
2019-Apr-22 15:25N 37°48' W 122°17'0 0.0
2019-Apr-22 14:52N 37°48' W 122°17'0 0.0
2019-Apr-22 14:25N 37°48' W 122°17'0 0.0
2019-Apr-22 13:58N 37°48' W 122°17'0 0.0
2019-Apr-22 13:25N 37°48' W 122°17'0 0.0
2019-Apr-22 12:58N 37°48' W 122°17'0 0.0
2019-Apr-22 12:28N 37°48' W 122°17'0 0.0
2019-Apr-22 11:58N 37°48' W 122°17'0 0.0
2019-Apr-22 11:28N 37°48' W 122°17'0 0.0
2019-Apr-22 10:58N 37°48' W 122°17'0 0.0
2019-Apr-22 10:25N 37°48' W 122°17'0 0.0
2019-Apr-22 09:58N 37°48' W 122°17'0 0.0
2019-Apr-22 09:22N 37°48' W 122°17'0 0.0
2019-Apr-22 08:58N 37°48' W 122°17'0 0.0
2019-Apr-22 08:28N 37°48' W 122°17'0 0.0
2019-Apr-22 07:58N 37°48' W 122°17'0 0.0
2019-Apr-22 07:25N 37°48' W 122°17'0 0.0
2019-Apr-22 06:58N 37°48' W 122°17'0 0.0
2019-Apr-22 06:25N 37°48' W 122°17'0 0.0
2019-Apr-22 05:58N 37°48' W 122°17'0 0.0
2019-Apr-22 05:19N 37°48' W 122°17'0 0.0
2019-Apr-22 04:58N 37°48' W 122°17'0 0.0
2019-Apr-22 04:19N 37°48' W 122°17'0 0.0
2019-Apr-22 03:46N 37°48' W 122°17'0 0.0
2019-Apr-22 03:25N 37°48' W 122°17'0 0.0
2019-Apr-22 02:55N 37°48' W 122°17'0 0.0
2019-Apr-22 02:19N 37°48' W 122°17'0 0.0
2019-Apr-22 01:28N 37°48' W 122°17'0 0.0
2019-Apr-22 01:00N 37°48' W 122°17'3 5.7
2019-Apr-22 00:30N 37°48' W 122°20'4 4.4
2019-Apr-21 23:37N 37°49' W 122°25'0 2.6
2019-Apr-21 23:30N 37°49' W 122°25'1 1.7
2019-Apr-21 23:00N 37°49' W 122°27'3 5.7
2019-Apr-21 22:30N 37°48' W 122°23'3 5.7
2019-Apr-21 21:58N 37°48' W 122°19'2 3.2
2019-Apr-21 21:21N 37°48' W 122°17'0 0.0
2019-Apr-21 20:46N 37°48' W 122°17'0 0.0
2019-Apr-21 20:15N 37°48' W 122°17'0 0.0
2019-Apr-21 19:10N 37°48' W 122°17'0 0.0
2019-Apr-21 17:51N 37°48' W 122°17'0 0.0
2019-Apr-21 17:27N 37°48' W 122°17'0 0.0
2019-Apr-21 16:57N 37°48' W 122°17'0 0.0
2019-Apr-21 16:27N 37°48' W 122°17'0 0.0
2019-Apr-21 15:51N 37°48' W 122°17'0 0.0
2019-Apr-21 15:15N 37°48' W 122°17'0 0.0
2019-Apr-21 14:57N 37°48' W 122°17'0 0.0
2019-Apr-21 14:21N 37°48' W 122°17'0 0.0
2019-Apr-21 13:51N 37°48' W 122°17'0 0.0
2019-Apr-21 13:15N 37°48' W 122°17'0 0.0
2019-Apr-21 12:57N 37°48' W 122°17'0 0.0
2019-Apr-21 12:03N 37°48' W 122°17'0 0.0
2019-Apr-21 11:57N 37°48' W 122°17'0 0.0
2019-Apr-21 11:27N 37°48' W 122°17'0 0.0
2019-Apr-21 10:57N 37°48' W 122°17'0 0.0
2019-Apr-21 10:27N 37°48' W 122°17'0 0.0
2019-Apr-21 09:57N 37°48' W 122°17'0 0.0
2019-Apr-21 09:09N 37°48' W 122°17'0 0.0
2019-Apr-21 08:57N 37°48' W 122°17'0 0.0
2019-Apr-21 08:21N 37°48' W 122°17'0 0.0
2019-Apr-21 07:33N 37°48' W 122°17'0 0.0
2019-Apr-21 07:27N 37°48' W 122°17'0 0.0
2019-Apr-21 06:57N 37°48' W 122°17'0 0.0
2019-Apr-21 06:27N 37°48' W 122°17'0 0.0
2019-Apr-21 05:27N 37°48' W 122°17'0 0.0
2019-Apr-21 04:15N 37°48' W 122°17'0 0.0
2019-Apr-21 03:45N 37°48' W 122°17'0 0.0
2019-Apr-21 03:09N 37°48' W 122°17'0 0.0
2019-Apr-21 02:52N 37°48' W 122°17'0 0.0
2019-Apr-21 01:34N 37°48' W 122°17'0 0.0
2019-Apr-21 01:10N 37°48' W 122°17'0 0.0
2019-Apr-21 00:28N 37°48' W 122°17'0 0.0
2019-Apr-21 00:00N 37°48' W 122°17'0 0.0
2019-Apr-20 22:48N 37°48' W 122°17'0 0.0
2019-Apr-20 21:57N 37°48' W 122°17'0 0.0
2019-Apr-20 20:57N 37°48' W 122°17'0 0.0
2019-Apr-20 20:07N 37°48' W 122°17'0 0.6
2019-Apr-20 19:58N 37°48' W 122°17'3 6.3
2019-Apr-20 19:29N 37°48' W 122°20'2 4.1
2019-Apr-20 18:54N 37°46' W 122°20'0 0.6
2019-Apr-20 18:31N 37°46' W 122°20'2 4.7
2019-Apr-20 18:00N 37°48' W 122°20'2 4.7
2019-Apr-20 17:29N 37°48' W 122°17'0 0.9
2019-Apr-20 17:00N 37°48' W 122°17'0 0.0
2019-Apr-20 16:30N 37°48' W 122°17'0 0.0
2019-Apr-20 16:00N 37°48' W 122°17'0 0.0
2019-Apr-20 15:30N 37°48' W 122°17'0 0.0
2019-Apr-20 15:00N 37°48' W 122°17'0 0.0
2019-Apr-20 14:12N 37°48' W 122°17'0 0.0
2019-Apr-20 13:54N 37°48' W 122°17'0 0.0
2019-Apr-20 13:24N 37°48' W 122°17'0 0.0
2019-Apr-20 13:00N 37°48' W 122°17'0 0.0
2019-Apr-20 12:30N 37°48' W 122°17'0 0.0
2019-Apr-20 12:00N 37°48' W 122°17'0 0.0
2019-Apr-20 11:30N 37°48' W 122°17'0 0.0
2019-Apr-20 10:57N 37°48' W 122°17'0 0.0
2019-Apr-20 10:30N 37°48' W 122°17'0 0.0
2019-Apr-20 10:00N 37°48' W 122°17'0 0.0
2019-Apr-20 09:27N 37°48' W 122°17'0 0.0
2019-Apr-20 08:51N 37°48' W 122°17'0 0.0
2019-Apr-20 08:27N 37°48' W 122°17'0 0.0
2019-Apr-20 08:00N 37°48' W 122°17'0 0.0
2019-Apr-20 07:18N 37°48' W 122°17'0 0.0
2019-Apr-20 07:00N 37°48' W 122°17'0 0.0
2019-Apr-20 06:21N 37°48' W 122°17'0 0.0
2019-Apr-20 06:00N 37°48' W 122°17'0 0.0
2019-Apr-20 05:27N 37°48' W 122°17'0 0.0
2019-Apr-20 04:45N 37°48' W 122°17'0 0.0
2019-Apr-20 04:31N 37°48' W 122°17'0 0.0
2019-Apr-20 03:36N 37°48' W 122°17'0 0.0
2019-Apr-20 03:24N 37°48' W 122°17'0 0.0
2019-Apr-20 02:57N 37°48' W 122°17'0 0.0
2019-Apr-20 02:24N 37°48' W 122°17'0 0.0
2019-Apr-20 02:00N 37°48' W 122°17'0 0.0
2019-Apr-20 01:30N 37°48' W 122°17'0 0.0
2019-Apr-20 01:00N 37°48' W 122°17'0 0.0
2019-Apr-20 00:30N 37°48' W 122°17'0 0.0
2019-Apr-20 00:00N 37°48' W 122°17'0 0.0
2019-Apr-19 23:28N 37°48' W 122°17'0 0.0
2019-Apr-19 22:57N 37°48' W 122°17'0 0.1
2019-Apr-19 22:28N 37°48' W 122°17'2 5.3
2019-Apr-19 22:00N 37°48' W 122°20'1 2.4
2019-Apr-19 21:29N 37°48' W 122°21'1 1.2
2019-Apr-19 21:00N 37°47' W 122°21'2 3.4
2019-Apr-19 20:30N 37°48' W 122°19'2 3.8
2019-Apr-19 20:00N 37°48' W 122°17'0 0.1
2019-Apr-19 19:27N 37°48' W 122°17'1 1.8
2019-Apr-19 19:00N 37°48' W 122°18'2 4.5
2019-Apr-19 18:28N 37°47' W 122°21'1 3.1
2019-Apr-19 18:00N 37°46' W 122°20'2 4.2
2019-Apr-19 17:30N 37°48' W 122°21'2 3.2
2019-Apr-19 16:59N 37°48' W 122°19'2 2.8
2019-Apr-19 16:22N 37°48' W 122°17'0 0.0
2019-Apr-19 15:55N 37°48' W 122°17'0 0.0
2019-Apr-19 15:22N 37°48' W 122°17'0 0.0
2019-Apr-19 14:58N 37°48' W 122°17'0 0.0
2019-Apr-19 14:28N 37°48' W 122°17'0 0.0
2019-Apr-19 13:58N 37°48' W 122°17'0 0.0
2019-Apr-19 13:22N 37°48' W 122°17'0 0.0
2019-Apr-19 12:58N 37°48' W 122°17'0 0.0
2019-Apr-19 12:22N 37°48' W 122°17'0 0.0
2019-Apr-19 11:58N 37°48' W 122°17'0 0.0
2019-Apr-19 11:28N 37°48' W 122°17'0 0.0
2019-Apr-19 10:40N 37°48' W 122°17'0 0.0
2019-Apr-19 10:19N 37°48' W 122°17'0 0.0
2019-Apr-19 09:58N 37°48' W 122°17'0 0.0
2019-Apr-19 08:58N 37°48' W 122°17'0 0.0
2019-Apr-19 08:04N 37°48' W 122°17'0 0.0
2019-Apr-19 07:55N 37°48' W 122°17'0 0.0
2019-Apr-19 07:25N 37°48' W 122°17'0 0.0
2019-Apr-19 06:49N 37°48' W 122°17'0 0.0
2019-Apr-19 06:28N 37°48' W 122°17'0 0.0
2019-Apr-19 05:55N 37°48' W 122°17'0 0.0
2019-Apr-19 05:28N 37°48' W 122°17'0 0.0
2019-Apr-19 04:58N 37°48' W 122°17'0 0.0
2019-Apr-19 04:22N 37°48' W 122°17'0 0.0
2019-Apr-19 03:58N 37°48' W 122°17'0 0.0
2019-Apr-19 03:28N 37°48' W 122°17'0 0.0
2019-Apr-19 02:58N 37°48' W 122°17'0 0.0
2019-Apr-19 02:25N 37°48' W 122°17'0 0.0
2019-Apr-19 01:13N 37°48' W 122°17'0 0.0
2019-Apr-18 23:52N 37°48' W 122°17'0 0.0
2019-Apr-18 23:28N 37°48' W 122°17'0 0.0
2019-Apr-18 22:52N 37°48' W 122°17'0 0.3
2019-Apr-18 22:30N 37°48' W 122°17'3 5.8
2019-Apr-18 22:00N 37°48' W 122°20'1 2.2
2019-Apr-18 21:29N 37°48' W 122°22'0 0.8
2019-Apr-18 20:57N 37°48' W 122°21'1 2.4
2019-Apr-18 20:30N 37°48' W 122°20'3 2.5
2019-Apr-18 19:28N 37°48' W 122°17'0 0.0
2019-Apr-18 18:40N 37°48' W 122°17'0 0.0
2019-Apr-18 18:28N 37°48' W 122°17'0 0.0
2019-Apr-18 17:22N 37°48' W 122°17'0 0.0
2019-Apr-18 16:58N 37°48' W 122°17'0 0.0
2019-Apr-18 16:14N 37°48' W 122°17'0 0.0
2019-Apr-18 15:23N 37°48' W 122°17'0 0.0
2019-Apr-18 14:10N 37°48' W 122°17'0 0.0
2019-Apr-18 13:59N 37°48' W 122°17'0 0.0
2019-Apr-18 13:25N 37°48' W 122°17'0 0.0
2019-Apr-18 12:46N 37°48' W 122°17'0 0.0
2019-Apr-18 12:14N 37°48' W 122°17'0 0.0
2019-Apr-18 11:59N 37°48' W 122°17'0 0.0
2019-Apr-18 11:19N 37°48' W 122°17'0 0.0
2019-Apr-18 10:34N 37°48' W 122°17'0 0.0
2019-Apr-18 10:19N 37°48' W 122°17'0 0.0
2019-Apr-18 09:56N 37°48' W 122°17'0 0.0
2019-Apr-18 08:59N 37°48' W 122°17'0 0.0
2019-Apr-18 08:11N 37°48' W 122°17'0 0.0
2019-Apr-18 07:34N 37°48' W 122°17'0 0.0
2019-Apr-18 07:22N 37°48' W 122°17'0 0.0
2019-Apr-18 06:16N 37°48' W 122°17'0 0.0
2019-Apr-18 05:47N 37°48' W 122°17'0 0.0
2019-Apr-18 05:23N 37°48' W 122°17'0 0.0
2019-Apr-18 04:52N 37°48' W 122°17'0 0.0
2019-Apr-18 04:17N 37°48' W 122°17'0 0.0
2019-Apr-18 03:41N 37°48' W 122°17'0 0.0
2019-Apr-18 02:28N 37°48' W 122°17'0 0.0
2019-Apr-18 01:47N 37°48' W 122°17'0 0.0
2019-Apr-18 01:29N 37°48' W 122°17'0 0.0
2019-Apr-18 00:40N 37°48' W 122°17'0 0.0
2019-Apr-18 00:23N 37°48' W 122°17'0 0.0
2019-Apr-17 23:46N 37°48' W 122°17'0 0.0
2019-Apr-17 22:46N 37°48' W 122°17'0 0.0
2019-Apr-17 22:22N 37°48' W 122°17'1 3.7
2019-Apr-17 21:59N 37°48' W 122°18'2 4.8
2019-Apr-17 21:30N 37°48' W 122°21'1 1.0
2019-Apr-17 21:00N 37°47' W 122°21'1 2.4
2019-Apr-17 20:30N 37°48' W 122°20'3 5.4
2019-Apr-17 19:59N 37°48' W 122°17'0 0.1
2019-Apr-17 19:28N 37°48' W 122°17'0 0.0
2019-Apr-17 18:50N 37°48' W 122°17'1 4.2
2019-Apr-17 18:30N 37°48' W 122°18'3 5.2
2019-Apr-17 18:00N 37°48' W 122°22'0 0.5
2019-Apr-17 17:30N 37°48' W 122°22'2 3.5
2019-Apr-17 17:00N 37°48' W 122°20'2 3.8
2019-Apr-17 16:23N 37°48' W 122°17'0 0.0
2019-Apr-17 15:59N 37°48' W 122°17'0 0.0
2019-Apr-17 15:29N 37°48' W 122°17'0 0.0
2019-Apr-17 14:50N 37°48' W 122°17'0 0.0
2019-Apr-17 14:29N 37°48' W 122°17'0 0.0
2019-Apr-17 13:59N 37°48' W 122°17'0 0.0
2019-Apr-17 13:20N 37°48' W 122°17'0 0.0
2019-Apr-17 12:59N 37°48' W 122°17'0 0.0
2019-Apr-17 11:59N 37°48' W 122°17'0 0.0
2019-Apr-17 11:29N 37°48' W 122°17'0 0.0
2019-Apr-17 11:00N 37°48' W 122°17'0 0.0
2019-Apr-17 10:24N 37°48' W 122°17'0 0.0
2019-Apr-17 10:00N 37°48' W 122°17'0 0.0
2019-Apr-17 09:24N 37°48' W 122°17'0 0.0
2019-Apr-17 08:59N 37°48' W 122°17'0 0.0
2019-Apr-17 08:29N 37°48' W 122°17'0 0.0
2019-Apr-17 07:56N 37°48' W 122°17'0 0.0
2019-Apr-17 07:29N 37°48' W 122°17'0 0.0
2019-Apr-17 06:53N 37°48' W 122°17'0 0.0
2019-Apr-17 06:30N 37°48' W 122°17'0 0.0
2019-Apr-17 06:00N 37°48' W 122°17'0 0.0
2019-Apr-17 05:30N 37°48' W 122°17'0 0.0
2019-Apr-17 04:59N 37°48' W 122°17'0 0.0
2019-Apr-17 04:11N 37°48' W 122°17'0 0.0
2019-Apr-17 04:00N 37°48' W 122°17'0 0.0
2019-Apr-17 03:17N 37°48' W 122°17'0 0.0
2019-Apr-17 02:59N 37°48' W 122°17'0 0.0
2019-Apr-17 02:30N 37°48' W 122°17'0 0.0
2019-Apr-17 01:47N 37°48' W 122°17'0 0.0
2019-Apr-17 01:29N 37°48' W 122°17'0 0.0
2019-Apr-17 01:00N 37°48' W 122°17'0 0.0
2019-Apr-17 00:30N 37°48' W 122°17'0 0.0
2019-Apr-16 23:47N 37°48' W 122°17'0 0.0
2019-Apr-16 23:18N 37°48' W 122°17'0 0.0
2019-Apr-16 22:59N 37°48' W 122°17'0 0.0
2019-Apr-16 22:23N 37°48' W 122°17'0 0.0
2019-Apr-16 21:56N 37°48' W 122°17'0 0.0
2019-Apr-16 21:11N 37°48' W 122°17'0 0.0
2019-Apr-16 20:59N 37°48' W 122°17'0 0.0
2019-Apr-16 20:21N 37°48' W 122°17'0 0.0
2019-Apr-16 19:59N 37°48' W 122°17'0 0.0
2019-Apr-16 19:30N 37°48' W 122°17'0 0.0
2019-Apr-16 18:56N 37°48' W 122°17'0 0.0
2019-Apr-16 18:26N 37°48' W 122°17'0 0.0
2019-Apr-16 17:59N 37°48' W 122°17'0 0.0
2019-Apr-16 17:29N 37°48' W 122°17'0 0.0
2019-Apr-16 16:57N 37°48' W 122°17'0 0.0
2019-Apr-16 16:23N 37°48' W 122°17'0 0.0
2019-Apr-16 15:53N 37°48' W 122°17'0 0.0
2019-Apr-16 15:29N 37°48' W 122°17'0 0.0
2019-Apr-16 14:56N 37°48' W 122°17'0 0.0
2019-Apr-16 14:21N 37°48' W 122°17'0 0.0
2019-Apr-16 13:59N 37°48' W 122°17'0 0.0
2019-Apr-16 13:30N 37°48' W 122°17'0 0.0
2019-Apr-16 12:59N 37°48' W 122°17'0 0.0
2019-Apr-16 12:23N 37°48' W 122°17'0 0.0
2019-Apr-16 11:59N 37°48' W 122°17'0 0.0
2019-Apr-16 11:27N 37°48' W 122°17'0 0.0
2019-Apr-16 10:59N 37°48' W 122°17'0 0.0
2019-Apr-16 10:29N 37°48' W 122°17'0 0.0
2019-Apr-16 09:59N 37°48' W 122°17'0 0.0
2019-Apr-16 09:20N 37°48' W 122°17'0 0.0
2019-Apr-16 08:53N 37°48' W 122°17'0 0.0
2019-Apr-16 08:08N 37°48' W 122°17'0 0.0
2019-Apr-16 07:59N 37°48' W 122°17'0 0.0
2019-Apr-16 07:29N 37°48' W 122°17'0 0.0
2019-Apr-16 06:56N 37°48' W 122°17'0 0.0
2019-Apr-16 06:23N 37°48' W 122°17'0 0.0
2019-Apr-16 05:53N 37°48' W 122°17'0 0.0
2019-Apr-16 05:29N 37°48' W 122°17'0 0.0
2019-Apr-16 04:50N 37°48' W 122°17'0 0.0
2019-Apr-16 04:29N 37°48' W 122°17'0 0.0
2019-Apr-16 03:59N 37°48' W 122°17'0 0.0
2019-Apr-16 03:20N 37°48' W 122°17'0 0.0
2019-Apr-16 02:50N 37°48' W 122°17'0 0.0
2019-Apr-16 02:30N 37°48' W 122°17'0 0.0
2019-Apr-16 01:59N 37°48' W 122°17'0 0.0
2019-Apr-16 01:15N 37°48' W 122°17'0 0.0
2019-Apr-16 01:00N 37°48' W 122°17'0 0.0
2019-Apr-16 00:26N 37°48' W 122°17'0 0.0
2019-Apr-15 23:59N 37°48' W 122°17'0 0.0
2019-Apr-15 23:30N 37°48' W 122°17'0 0.0
2019-Apr-15 22:53N 37°48' W 122°17'0 0.0
2019-Apr-15 22:23N 37°48' W 122°17'0 0.0
2019-Apr-15 21:41N 37°48' W 122°17'0 0.0
2019-Apr-15 21:23N 37°48' W 122°17'0 0.0
2019-Apr-15 20:44N 37°48' W 122°17'0 0.0
2019-Apr-15 20:23N 37°48' W 122°17'0 0.0
2019-Apr-15 19:59N 37°48' W 122°17'0 0.0
2019-Apr-15 19:24N 37°48' W 122°17'0 0.0
2019-Apr-15 18:59N 37°48' W 122°17'0 0.0
2019-Apr-15 18:26N 37°48' W 122°17'0 0.0
2019-Apr-15 17:50N 37°48' W 122°17'0 0.0
2019-Apr-15 17:08N 37°48' W 122°17'0 0.0
2019-Apr-15 17:00N 37°48' W 122°17'0 0.0
2019-Apr-15 16:20N 37°48' W 122°17'0 0.0
2019-Apr-15 16:00N 37°48' W 122°17'0 0.0
2019-Apr-15 15:26N 37°48' W 122°17'0 0.0
2019-Apr-15 14:38N 37°48' W 122°17'0 0.0
2019-Apr-15 14:29N 37°48' W 122°17'0 0.0
2019-Apr-15 14:00N 37°48' W 122°17'0 0.0
2019-Apr-15 13:24N 37°48' W 122°17'0 0.0
2019-Apr-15 12:56N 37°48' W 122°17'0 0.0
2019-Apr-15 12:23N 37°48' W 122°17'0 0.0
2019-Apr-15 11:48N 37°48' W 122°17'0 0.0
2019-Apr-15 11:23N 37°48' W 122°17'0 0.0
2019-Apr-15 10:50N 37°48' W 122°17'0 0.0
2019-Apr-15 10:29N 37°48' W 122°17'0 0.0
2019-Apr-15 09:59N 37°48' W 122°17'0 0.0
2019-Apr-15 09:26N 37°48' W 122°17'0 0.0
2019-Apr-15 08:59N 37°48' W 122°17'0 0.0
2019-Apr-15 08:26N 37°48' W 122°17'0 0.0
2019-Apr-15 07:59N 37°48' W 122°17'0 0.0
2019-Apr-15 07:17N 37°48' W 122°17'0 0.0
2019-Apr-15 06:59N 37°48' W 122°17'0 0.0
2019-Apr-15 06:29N 37°48' W 122°17'0 0.0
2019-Apr-15 05:47N 37°48' W 122°17'0 0.0
2019-Apr-15 05:29N 37°48' W 122°17'0 0.0
2019-Apr-15 04:45N 37°48' W 122°17'0 0.0
2019-Apr-15 04:23N 37°48' W 122°17'0 0.0
2019-Apr-15 03:53N 37°48' W 122°17'0 0.0
2019-Apr-15 03:29N 37°48' W 122°17'0 0.0
2019-Apr-15 02:53N 37°48' W 122°17'0 0.0
2019-Apr-15 02:29N 37°48' W 122°17'0 0.0
2019-Apr-15 01:59N 37°48' W 122°17'0 0.0
2019-Apr-15 01:29N 37°48' W 122°17'0 0.0
2019-Apr-15 00:53N 37°48' W 122°17'  
Track history (hours):
 
Tides and Currents Weather Stations Pressure Air Temp Water Temp Dewpoint Dewpoint Depression Visibility Wind Speed Wind Dir Waves Ship Positions

Hawaiian Chieftain (United States)

Operated briefly as "Spirt of Larinda". When she sailed from Sausalito, California, callsign was WAA7737.

Ship's website: http://www.historicalseaport.org/HawaiianChieftain.htm

Owner: GRAYS HARBOR HISTORICAL SEAPORT AUTHORITY, ABERDEEN, WA. More information available from US FCC via Universal Licensing System and Coast Guard Vessel Documentation Center.

Last reported at 2019-Apr-25 00:35 UTC. Time now 2019-Apr-25 11:47 UTC.
Position N 38°20' W 123°03'.

Length 20 m.

Type: Sailing vessel. MMSI: 367092520.

Date/timePositionNaut miles runAvg speedWind from/ knotsBaromVisibWave heightAir tempDewpointWater temp
2019-Apr-25 00:35N 38°20' W 123°03'0 0.0
2019-Apr-25 00:29N 38°20' W 123°03'0 0.0
2019-Apr-24 23:53N 38°20' W 123°03'0 0.0
2019-Apr-24 23:29N 38°20' W 123°03'0 0.0
2019-Apr-24 22:41N 38°20' W 123°03'0 0.0
2019-Apr-24 22:29N 38°20' W 123°03'0 0.0
2019-Apr-24 21:59N 38°20' W 123°03'0 0.0
2019-Apr-24 21:17N 38°20' W 123°03'0 0.0
2019-Apr-24 20:41N 38°20' W 123°03'0 0.0
2019-Apr-24 20:29N 38°20' W 123°03'0 0.0
2019-Apr-24 19:59N 38°20' W 123°03'0 0.0
2019-Apr-24 19:29N 38°20' W 123°03'0 0.0
2019-Apr-24 18:35N 38°20' W 123°03'0 0.0
2019-Apr-24 18:23N 38°20' W 123°03'0 0.0
2019-Apr-24 16:05N 38°20' W 123°03'0 0.2
2019-Apr-24 16:00N 38°20' W 123°03'2 3.0
2019-Apr-24 15:30N 38°18' W 123°03'2 3.2
2019-Apr-24 14:59N 38°17' W 123°03'3 6.2
2019-Apr-24 14:30N 38°18' W 123°07'3 6.0
2019-Apr-24 14:00N 38°20' W 123°09'3 6.4
2019-Apr-24 13:30N 38°22' W 123°13'3 6.3
2019-Apr-24 13:00N 38°23' W 123°16'4 1.9
2019-Apr-24 10:47N 38°25' W 123°21'1 3.0
2019-Apr-24 10:30N 38°24' W 123°21'1 2.8
2019-Apr-24 10:00N 38°23' W 123°20'2 3.1
2019-Apr-24 09:28N 38°21' W 123°20'2 3.0
2019-Apr-24 08:52N 38°20' W 123°19'1 3.3
2019-Apr-24 08:26N 38°19' W 123°18'2 3.6
2019-Apr-24 08:00N 38°17' W 123°17'2 3.7
2019-Apr-24 07:30N 38°15' W 123°16'2 3.4
2019-Apr-24 07:00N 38°14' W 123°15'2 3.8
2019-Apr-24 06:30N 38°12' W 123°14'3 3.7
2019-Apr-24 05:44N 38°10' W 123°13'1 3.9
2019-Apr-24 05:25N 38°09' W 123°12'2 4.1
2019-Apr-24 05:00N 38°08' W 123°10'2 3.6
2019-Apr-24 04:29N 38°06' W 123°08'3 4.1
2019-Apr-24 03:52N 38°04' W 123°06'2 4.7
2019-Apr-24 03:29N 38°03' W 123°06'3 4.4
2019-Apr-24 02:52N 38°00' W 123°04'2 4.6
2019-Apr-24 02:27N 37°59' W 123°03'2 4.2
2019-Apr-24 01:59N 37°57' W 123°02'2 4.7
2019-Apr-24 01:28N 37°56' W 122°59'3 5.4
2019-Apr-24 00:54N 37°55' W 122°55'3 5.2
2019-Apr-24 00:23N 37°54' W 122°52'13 5.0
2019-Apr-23 21:43N 37°48' W 122°37'1 4.1
2019-Apr-23 21:23N 37°48' W 122°35'2 6.0
2019-Apr-23 21:00N 37°48' W 122°32'3 5.2
2019-Apr-23 20:30N 37°49' W 122°29'2 3.5
2019-Apr-23 20:00N 37°49' W 122°27'3 5.2
2019-Apr-23 19:30N 37°49' W 122°24'2 3.8
2019-Apr-23 19:00N 37°48' W 122°22'3 5.4
2019-Apr-23 18:30N 37°48' W 122°18'1 2.9
2019-Apr-23 18:00N 37°48' W 122°17'0 0.0
2019-Apr-23 17:27N 37°48' W 122°17'0 0.0
2019-Apr-23 16:51N 37°48' W 122°17'0 0.3
2019-Apr-23 16:13N 37°48' W 122°17'0 0.0
2019-Apr-23 15:28N 37°48' W 122°17'0 0.0
2019-Apr-23 14:46N 37°48' W 122°17'0 0.0
2019-Apr-23 14:25N 37°48' W 122°17'0 0.0
2019-Apr-23 13:52N 37°48' W 122°17'0 0.0
2019-Apr-23 12:46N 37°48' W 122°17'0 0.0
2019-Apr-23 12:22N 37°48' W 122°17'0 0.0
2019-Apr-23 11:55N 37°48' W 122°17'0 0.0
2019-Apr-23 11:22N 37°48' W 122°17'0 0.0
2019-Apr-23 10:55N 37°48' W 122°17'0 0.0
2019-Apr-23 10:25N 37°48' W 122°17'0 0.0
2019-Apr-23 09:40N 37°48' W 122°17'0 0.0
2019-Apr-23 09:19N 37°48' W 122°17'0 0.0
2019-Apr-23 08:43N 37°48' W 122°17'0 0.0
2019-Apr-23 08:25N 37°48' W 122°17'0 0.0
2019-Apr-23 07:55N 37°48' W 122°17'0 0.0
2019-Apr-23 07:19N 37°48' W 122°17'0 0.0
2019-Apr-23 06:49N 37°48' W 122°17'0 0.0
2019-Apr-23 06:07N 37°48' W 122°17'0 0.0
2019-Apr-23 05:43N 37°48' W 122°17'0 0.0
2019-Apr-23 05:19N 37°48' W 122°17'0 0.0
2019-Apr-23 04:40N 37°48' W 122°17'0 0.0
2019-Apr-23 04:25N 37°48' W 122°17'0 0.0
2019-Apr-23 03:49N 37°48' W 122°17'0 0.0
2019-Apr-23 03:07N 37°48' W 122°17'0 0.0
2019-Apr-23 02:55N 37°48' W 122°17'0 0.0
2019-Apr-23 02:25N 37°48' W 122°17'0 0.0
2019-Apr-23 01:49N 37°48' W 122°17'0 0.0
2019-Apr-23 01:25N 37°48' W 122°17'0 0.0
2019-Apr-23 00:58N 37°48' W 122°17'0 0.0
2019-Apr-23 00:28N 37°48' W 122°17'0 0.0
2019-Apr-22 23:55N 37°48' W 122°17'0 0.0
2019-Apr-22 23:16N 37°48' W 122°17'0 0.0
2019-Apr-22 22:58N 37°48' W 122°17'0 0.0
2019-Apr-22 21:49N 37°48' W 122°17'0 0.0
2019-Apr-22 21:13N 37°48' W 122°17'0 0.0
2019-Apr-22 20:49N 37°48' W 122°17'0 0.0
2019-Apr-22 20:28N 37°48' W 122°17'0 0.0
2019-Apr-22 19:19N 37°48' W 122°17'0 0.0
2019-Apr-22 18:55N 37°48' W 122°17'0 0.0
2019-Apr-22 18:13N 37°48' W 122°17'0 0.0
2019-Apr-22 17:58N 37°48' W 122°17'0 0.0
2019-Apr-22 16:31N 37°48' W 122°17'0 0.0
2019-Apr-22 16:10N 37°48' W 122°17'0 0.0
2019-Apr-22 15:52N 37°48' W 122°17'0 0.0
2019-Apr-22 15:25N 37°48' W 122°17'0 0.0
2019-Apr-22 14:52N 37°48' W 122°17'0 0.0
2019-Apr-22 14:25N 37°48' W 122°17'0 0.0
2019-Apr-22 13:58N 37°48' W 122°17'0 0.0
2019-Apr-22 13:25N 37°48' W 122°17'0 0.0
2019-Apr-22 12:58N 37°48' W 122°17'0 0.0
2019-Apr-22 12:28N 37°48' W 122°17'0 0.0
2019-Apr-22 11:58N 37°48' W 122°17'0 0.0
2019-Apr-22 11:28N 37°48' W 122°17'0 0.0
2019-Apr-22 10:58N 37°48' W 122°17'0 0.0
2019-Apr-22 10:25N 37°48' W 122°17'0 0.0
2019-Apr-22 09:58N 37°48' W 122°17'0 0.0
2019-Apr-22 09:22N 37°48' W 122°17'0 0.0
2019-Apr-22 08:58N 37°48' W 122°17'0 0.0
2019-Apr-22 08:28N 37°48' W 122°17'0 0.0
2019-Apr-22 07:58N 37°48' W 122°17'0 0.0
2019-Apr-22 07:25N 37°48' W 122°17'0 0.0
2019-Apr-22 06:58N 37°48' W 122°17'0 0.0
2019-Apr-22 06:25N 37°48' W 122°17'0 0.0
2019-Apr-22 05:58N 37°48' W 122°17'0 0.0
2019-Apr-22 05:19N 37°48' W 122°17'0 0.0
2019-Apr-22 04:58N 37°48' W 122°17'0 0.0
2019-Apr-22 04:19N 37°48' W 122°17'0 0.0
2019-Apr-22 03:46N 37°48' W 122°17'0 0.0
2019-Apr-22 03:25N 37°48' W 122°17'0 0.0
2019-Apr-22 02:55N 37°48' W 122°17'0 0.0
2019-Apr-22 02:19N 37°48' W 122°17'0 0.0
2019-Apr-22 01:28N 37°48' W 122°17'0 0.0
2019-Apr-22 01:00N 37°48' W 122°17'3 5.7
2019-Apr-22 00:30N 37°48' W 122°20'4 4.4
2019-Apr-21 23:37N 37°49' W 122°25'0 2.6
2019-Apr-21 23:30N 37°49' W 122°25'1 1.7
2019-Apr-21 23:00N 37°49' W 122°27'3 5.7
2019-Apr-21 22:30N 37°48' W 122°23'3 5.7
2019-Apr-21 21:58N 37°48' W 122°19'2 3.2
2019-Apr-21 21:21N 37°48' W 122°17'0 0.0
2019-Apr-21 20:46N 37°48' W 122°17'0 0.0
2019-Apr-21 20:15N 37°48' W 122°17'0 0.0
2019-Apr-21 19:10N 37°48' W 122°17'0 0.0
2019-Apr-21 17:51N 37°48' W 122°17'0 0.0
2019-Apr-21 17:27N 37°48' W 122°17'0 0.0
2019-Apr-21 16:57N 37°48' W 122°17'0 0.0
2019-Apr-21 16:27N 37°48' W 122°17'0 0.0
2019-Apr-21 15:51N 37°48' W 122°17'0 0.0
2019-Apr-21 15:15N 37°48' W 122°17'0 0.0
2019-Apr-21 14:57N 37°48' W 122°17'0 0.0
2019-Apr-21 14:21N 37°48' W 122°17'0 0.0
2019-Apr-21 13:51N 37°48' W 122°17'0 0.0
2019-Apr-21 13:15N 37°48' W 122°17'0 0.0
2019-Apr-21 12:57N 37°48' W 122°17'0 0.0
2019-Apr-21 12:03N 37°48' W 122°17'0 0.0
2019-Apr-21 11:57N 37°48' W 122°17'0 0.0
2019-Apr-21 11:27N 37°48' W 122°17'0 0.0
2019-Apr-21 10:57N 37°48' W 122°17'0 0.0
2019-Apr-21 10:27N 37°48' W 122°17'0 0.0
2019-Apr-21 09:57N 37°48' W 122°17'0 0.0
2019-Apr-21 09:09N 37°48' W 122°17'0 0.0
2019-Apr-21 08:57N 37°48' W 122°17'0 0.0
2019-Apr-21 08:21N 37°48' W 122°17'0 0.0
2019-Apr-21 07:33N 37°48' W 122°17'0 0.0
2019-Apr-21 07:27N 37°48' W 122°17'0 0.0
2019-Apr-21 06:57N 37°48' W 122°17'0 0.0
2019-Apr-21 06:27N 37°48' W 122°17'0 0.0
2019-Apr-21 05:27N 37°48' W 122°17'0 0.0
2019-Apr-21 04:15N 37°48' W 122°17'0 0.0
2019-Apr-21 03:45N 37°48' W 122°17'0 0.0
2019-Apr-21 03:09N 37°48' W 122°17'0 0.0
2019-Apr-21 02:52N 37°48' W 122°17'0 0.0
2019-Apr-21 01:34N 37°48' W 122°17'0 0.0
2019-Apr-21 01:10N 37°48' W 122°17'0 0.0
2019-Apr-21 00:28N 37°48' W 122°17'0 0.0
2019-Apr-21 00:00N 37°48' W 122°17'0 0.0
2019-Apr-20 22:48N 37°48' W 122°17'0 0.0
2019-Apr-20 21:57N 37°48' W 122°17'0 0.0
2019-Apr-20 20:57N 37°48' W 122°17'0 0.0
2019-Apr-20 20:07N 37°48' W 122°17'0 0.6
2019-Apr-20 19:58N 37°48' W 122°17'3 6.3
2019-Apr-20 19:29N 37°48' W 122°20'2 4.1
2019-Apr-20 18:54N 37°46' W 122°20'0 0.6
2019-Apr-20 18:31N 37°46' W 122°20'2 4.7
2019-Apr-20 18:00N 37°48' W 122°20'2 4.7
2019-Apr-20 17:29N 37°48' W 122°17'0 0.9
2019-Apr-20 17:00N 37°48' W 122°17'0 0.0
2019-Apr-20 16:30N 37°48' W 122°17'0 0.0
2019-Apr-20 16:00N 37°48' W 122°17'0 0.0
2019-Apr-20 15:30N 37°48' W 122°17'0 0.0
2019-Apr-20 15:00N 37°48' W 122°17'0 0.0
2019-Apr-20 14:12N 37°48' W 122°17'0 0.0
2019-Apr-20 13:54N 37°48' W 122°17'0 0.0
2019-Apr-20 13:24N 37°48' W 122°17'0 0.0
2019-Apr-20 13:00N 37°48' W 122°17'0 0.0
2019-Apr-20 12:30N 37°48' W 122°17'0 0.0
2019-Apr-20 12:00N 37°48' W 122°17'0 0.0
2019-Apr-20 11:30N 37°48' W 122°17'0 0.0
2019-Apr-20 10:57N 37°48' W 122°17'0 0.0
2019-Apr-20 10:30N 37°48' W 122°17'0 0.0
2019-Apr-20 10:00N 37°48' W 122°17'0 0.0
2019-Apr-20 09:27N 37°48' W 122°17'0 0.0
2019-Apr-20 08:51N 37°48' W 122°17'0 0.0
2019-Apr-20 08:27N 37°48' W 122°17'0 0.0
2019-Apr-20 08:00N 37°48' W 122°17'0 0.0
2019-Apr-20 07:18N 37°48' W 122°17'0 0.0
2019-Apr-20 07:00N 37°48' W 122°17'0 0.0
2019-Apr-20 06:21N 37°48' W 122°17'0 0.0
2019-Apr-20 06:00N 37°48' W 122°17'0 0.0
2019-Apr-20 05:27N 37°48' W 122°17'0 0.0
2019-Apr-20 04:45N 37°48' W 122°17'0 0.0
2019-Apr-20 04:31N 37°48' W 122°17'0 0.0
2019-Apr-20 03:36N 37°48' W 122°17'0 0.0
2019-Apr-20 03:24N 37°48' W 122°17'0 0.0
2019-Apr-20 02:57N 37°48' W 122°17'0 0.0
2019-Apr-20 02:24N 37°48' W 122°17'0 0.0
2019-Apr-20 02:00N 37°48' W 122°17'0 0.0
2019-Apr-20 01:30N 37°48' W 122°17'0 0.0
2019-Apr-20 01:00N 37°48' W 122°17'0 0.0
2019-Apr-20 00:30N 37°48' W 122°17'0 0.0
2019-Apr-20 00:00N 37°48' W 122°17'0 0.0
2019-Apr-19 23:28N 37°48' W 122°17'0 0.0
2019-Apr-19 22:57N 37°48' W 122°17'0 0.1
2019-Apr-19 22:28N 37°48' W 122°17'2 5.3
2019-Apr-19 22:00N 37°48' W 122°20'1 2.4
2019-Apr-19 21:29N 37°48' W 122°21'1 1.2
2019-Apr-19 21:00N 37°47' W 122°21'2 3.4
2019-Apr-19 20:30N 37°48' W 122°19'2 3.8
2019-Apr-19 20:00N 37°48' W 122°17'0 0.1
2019-Apr-19 19:27N 37°48' W 122°17'1 1.8
2019-Apr-19 19:00N 37°48' W 122°18'2 4.5
2019-Apr-19 18:28N 37°47' W 122°21'1 3.1
2019-Apr-19 18:00N 37°46' W 122°20'2 4.2
2019-Apr-19 17:30N 37°48' W 122°21'2 3.2
2019-Apr-19 16:59N 37°48' W 122°19'2 2.8
2019-Apr-19 16:22N 37°48' W 122°17'0 0.0
2019-Apr-19 15:55N 37°48' W 122°17'0 0.0
2019-Apr-19 15:22N 37°48' W 122°17'0 0.0
2019-Apr-19 14:58N 37°48' W 122°17'0 0.0
2019-Apr-19 14:28N 37°48' W 122°17'0 0.0
2019-Apr-19 13:58N 37°48' W 122°17'0 0.0
2019-Apr-19 13:22N 37°48' W 122°17'0 0.0
2019-Apr-19 12:58N 37°48' W 122°17'0 0.0
2019-Apr-19 12:22N 37°48' W 122°17'0 0.0
2019-Apr-19 11:58N 37°48' W 122°17'0 0.0
2019-Apr-19 11:28N 37°48' W 122°17'0 0.0
2019-Apr-19 10:40N 37°48' W 122°17'0 0.0
2019-Apr-19 10:19N 37°48' W 122°17'0 0.0
2019-Apr-19 09:58N 37°48' W 122°17'0 0.0
2019-Apr-19 08:58N 37°48' W 122°17'0 0.0
2019-Apr-19 08:04N 37°48' W 122°17'0 0.0
2019-Apr-19 07:55N 37°48' W 122°17'0 0.0
2019-Apr-19 07:25N 37°48' W 122°17'0 0.0
2019-Apr-19 06:49N 37°48' W 122°17'0 0.0
2019-Apr-19 06:28N 37°48' W 122°17'0 0.0
2019-Apr-19 05:55N 37°48' W 122°17'0 0.0
2019-Apr-19 05:28N 37°48' W 122°17'0 0.0
2019-Apr-19 04:58N 37°48' W 122°17'0 0.0
2019-Apr-19 04:22N 37°48' W 122°17'0 0.0
2019-Apr-19 03:58N 37°48' W 122°17'0 0.0
2019-Apr-19 03:28N 37°48' W 122°17'0 0.0
2019-Apr-19 02:58N 37°48' W 122°17'0 0.0
2019-Apr-19 02:25N 37°48' W 122°17'0 0.0
2019-Apr-19 01:13N 37°48' W 122°17'0 0.0
2019-Apr-18 23:52N 37°48' W 122°17'0 0.0
2019-Apr-18 23:28N 37°48' W 122°17'0 0.0
2019-Apr-18 22:52N 37°48' W 122°17'0 0.3
2019-Apr-18 22:30N 37°48' W 122°17'3 5.8
2019-Apr-18 22:00N 37°48' W 122°20'1 2.2
2019-Apr-18 21:29N 37°48' W 122°22'0 0.8
2019-Apr-18 20:57N 37°48' W 122°21'1 2.4
2019-Apr-18 20:30N 37°48' W 122°20'3 2.5
2019-Apr-18 19:28N 37°48' W 122°17'0 0.0
2019-Apr-18 18:40N 37°48' W 122°17'0 0.0
2019-Apr-18 18:28N 37°48' W 122°17'0 0.0
2019-Apr-18 17:22N 37°48' W 122°17'0 0.0
2019-Apr-18 16:58N 37°48' W 122°17'0 0.0
2019-Apr-18 16:14N 37°48' W 122°17'0 0.0
2019-Apr-18 15:23N 37°48' W 122°17'0 0.0
2019-Apr-18 14:10N 37°48' W 122°17'0 0.0
2019-Apr-18 13:59N 37°48' W 122°17'0 0.0
2019-Apr-18 13:25N 37°48' W 122°17'0 0.0
2019-Apr-18 12:46N 37°48' W 122°17'0 0.0
2019-Apr-18 12:14N 37°48' W 122°17'0 0.0
2019-Apr-18 11:59N 37°48' W 122°17'0 0.0
2019-Apr-18 11:19N 37°48' W 122°17'0 0.0
2019-Apr-18 10:34N 37°48' W 122°17'0 0.0
2019-Apr-18 10:19N 37°48' W 122°17'0 0.0
2019-Apr-18 09:56N 37°48' W 122°17'0 0.0
2019-Apr-18 08:59N 37°48' W 122°17'0 0.0
2019-Apr-18 08:11N 37°48' W 122°17'0 0.0
2019-Apr-18 07:34N 37°48' W 122°17'0 0.0
2019-Apr-18 07:22N 37°48' W 122°17'0 0.0
2019-Apr-18 06:16N 37°48' W 122°17'0 0.0
2019-Apr-18 05:47N 37°48' W 122°17'0 0.0
2019-Apr-18 05:23N 37°48' W 122°17'0 0.0
2019-Apr-18 04:52N 37°48' W 122°17'0 0.0
2019-Apr-18 04:17N 37°48' W 122°17'0 0.0
2019-Apr-18 03:41N 37°48' W 122°17'0 0.0
2019-Apr-18 02:28N 37°48' W 122°17'0 0.0
2019-Apr-18 01:47N 37°48' W 122°17'0 0.0
2019-Apr-18 01:29N 37°48' W 122°17'0 0.0
2019-Apr-18 00:40N 37°48' W 122°17'0 0.0
2019-Apr-18 00:23N 37°48' W 122°17'0 0.0
2019-Apr-17 23:46N 37°48' W 122°17'0 0.0
2019-Apr-17 22:46N 37°48' W 122°17'0 0.0
2019-Apr-17 22:22N 37°48' W 122°17'1 3.7
2019-Apr-17 21:59N 37°48' W 122°18'2 4.8
2019-Apr-17 21:30N 37°48' W 122°21'1 1.0
2019-Apr-17 21:00N 37°47' W 122°21'1 2.4
2019-Apr-17 20:30N 37°48' W 122°20'3 5.4
2019-Apr-17 19:59N 37°48' W 122°17'0 0.1
2019-Apr-17 19:28N 37°48' W 122°17'0 0.0
2019-Apr-17 18:50N 37°48' W 122°17'1 4.2
2019-Apr-17 18:30N 37°48' W 122°18'3 5.2
2019-Apr-17 18:00N 37°48' W 122°22'0 0.5
2019-Apr-17 17:30N 37°48' W 122°22'2 3.5
2019-Apr-17 17:00N 37°48' W 122°20'2 3.8
2019-Apr-17 16:23N 37°48' W 122°17'0 0.0
2019-Apr-17 15:59N 37°48' W 122°17'0 0.0
2019-Apr-17 15:29N 37°48' W 122°17'0 0.0
2019-Apr-17 14:50N 37°48' W 122°17'0 0.0
2019-Apr-17 14:29N 37°48' W 122°17'0 0.0
2019-Apr-17 13:59N 37°48' W 122°17'0 0.0
2019-Apr-17 13:20N 37°48' W 122°17'0 0.0
2019-Apr-17 12:59N 37°48' W 122°17'0 0.0
2019-Apr-17 11:59N 37°48' W 122°17'0 0.0
2019-Apr-17 11:29N 37°48' W 122°17'0 0.0
2019-Apr-17 11:00N 37°48' W 122°17'0 0.0
2019-Apr-17 10:24N 37°48' W 122°17'0 0.0
2019-Apr-17 10:00N 37°48' W 122°17'0 0.0
2019-Apr-17 09:24N 37°48' W 122°17'0 0.0
2019-Apr-17 08:59N 37°48' W 122°17'0 0.0
2019-Apr-17 08:29N 37°48' W 122°17'0 0.0
2019-Apr-17 07:56N 37°48' W 122°17'0 0.0
2019-Apr-17 07:29N 37°48' W 122°17'0 0.0
2019-Apr-17 06:53N 37°48' W 122°17'0 0.0
2019-Apr-17 06:30N 37°48' W 122°17'0 0.0
2019-Apr-17 06:00N 37°48' W 122°17'0 0.0
2019-Apr-17 05:30N 37°48' W 122°17'0 0.0
2019-Apr-17 04:59N 37°48' W 122°17'0 0.0
2019-Apr-17 04:11N 37°48' W 122°17'0 0.0
2019-Apr-17 04:00N 37°48' W 122°17'0 0.0
2019-Apr-17 03:17N 37°48' W 122°17'0 0.0
2019-Apr-17 02:59N 37°48' W 122°17'0 0.0
2019-Apr-17 02:30N 37°48' W 122°17'0 0.0
2019-Apr-17 01:47N 37°48' W 122°17'0 0.0
2019-Apr-17 01:29N 37°48' W 122°17'0 0.0
2019-Apr-17 01:00N 37°48' W 122°17'0 0.0
2019-Apr-17 00:30N 37°48' W 122°17'0 0.0
2019-Apr-16 23:47N 37°48' W 122°17'0 0.0
2019-Apr-16 23:18N 37°48' W 122°17'0 0.0
2019-Apr-16 22:59N 37°48' W 122°17'0 0.0
2019-Apr-16 22:23N 37°48' W 122°17'0 0.0
2019-Apr-16 21:56N 37°48' W 122°17'0 0.0
2019-Apr-16 21:11N 37°48' W 122°17'0 0.0
2019-Apr-16 20:59N 37°48' W 122°17'0 0.0
2019-Apr-16 20:21N 37°48' W 122°17'0 0.0
2019-Apr-16 19:59N 37°48' W 122°17'0 0.0
2019-Apr-16 19:30N 37°48' W 122°17'0 0.0
2019-Apr-16 18:56N 37°48' W 122°17'0 0.0
2019-Apr-16 18:26N 37°48' W 122°17'0 0.0
2019-Apr-16 17:59N 37°48' W 122°17'0 0.0
2019-Apr-16 17:29N 37°48' W 122°17'0 0.0
2019-Apr-16 16:57N 37°48' W 122°17'0 0.0
2019-Apr-16 16:23N 37°48' W 122°17'0 0.0
2019-Apr-16 15:53N 37°48' W 122°17'0 0.0
2019-Apr-16 15:29N 37°48' W 122°17'0 0.0
2019-Apr-16 14:56N 37°48' W 122°17'0 0.0
2019-Apr-16 14:21N 37°48' W 122°17'0 0.0
2019-Apr-16 13:59N 37°48' W 122°17'0 0.0
2019-Apr-16 13:30N 37°48' W 122°17'0 0.0
2019-Apr-16 12:59N 37°48' W 122°17'0 0.0
2019-Apr-16 12:23N 37°48' W 122°17'0 0.0
2019-Apr-16 11:59N 37°48' W 122°17'0 0.0
2019-Apr-16 11:27N 37°48' W 122°17'0 0.0
2019-Apr-16 10:59N 37°48' W 122°17'0 0.0
2019-Apr-16 10:29N 37°48' W 122°17'0 0.0
2019-Apr-16 09:59N 37°48' W 122°17'0 0.0
2019-Apr-16 09:20N 37°48' W 122°17'0 0.0
2019-Apr-16 08:53N 37°48' W 122°17'0 0.0
2019-Apr-16 08:08N 37°48' W 122°17'0 0.0
2019-Apr-16 07:59N 37°48' W 122°17'0 0.0
2019-Apr-16 07:29N 37°48' W 122°17'0 0.0
2019-Apr-16 06:56N 37°48' W 122°17'0 0.0
2019-Apr-16 06:23N 37°48' W 122°17'0 0.0
2019-Apr-16 05:53N 37°48' W 122°17'0 0.0
2019-Apr-16 05:29N 37°48' W 122°17'0 0.0
2019-Apr-16 04:50N 37°48' W 122°17'0 0.0
2019-Apr-16 04:29N 37°48' W 122°17'0 0.0
2019-Apr-16 03:59N 37°48' W 122°17'0 0.0
2019-Apr-16 03:20N 37°48' W 122°17'0 0.0
2019-Apr-16 02:50N 37°48' W 122°17'0 0.0
2019-Apr-16 02:30N 37°48' W 122°17'0 0.0
2019-Apr-16 01:59N 37°48' W 122°17'0 0.0
2019-Apr-16 01:15N 37°48' W 122°17'0 0.0
2019-Apr-16 01:00N 37°48' W 122°17'0 0.0
2019-Apr-16 00:26N 37°48' W 122°17'0 0.0
2019-Apr-15 23:59N 37°48' W 122°17'0 0.0
2019-Apr-15 23:30N 37°48' W 122°17'0 0.0
2019-Apr-15 22:53N 37°48' W 122°17'0 0.0
2019-Apr-15 22:23N 37°48' W 122°17'0 0.0
2019-Apr-15 21:41N 37°48' W 122°17'0 0.0
2019-Apr-15 21:23N 37°48' W 122°17'0 0.0
2019-Apr-15 20:44N 37°48' W 122°17'0 0.0
2019-Apr-15 20:23N 37°48' W 122°17'0 0.0
2019-Apr-15 19:59N 37°48' W 122°17'0 0.0
2019-Apr-15 19:24N 37°48' W 122°17'0 0.0
2019-Apr-15 18:59N 37°48' W 122°17'0 0.0
2019-Apr-15 18:26N 37°48' W 122°17'0 0.0
2019-Apr-15 17:50N 37°48' W 122°17'0 0.0
2019-Apr-15 17:08N 37°48' W 122°17'0 0.0
2019-Apr-15 17:00N 37°48' W 122°17'0 0.0
2019-Apr-15 16:20N 37°48' W 122°17'0 0.0
2019-Apr-15 16:00N 37°48' W 122°17'0 0.0
2019-Apr-15 15:26N 37°48' W 122°17'0 0.0
2019-Apr-15 14:38N 37°48' W 122°17'0 0.0
2019-Apr-15 14:29N 37°48' W 122°17'0 0.0
2019-Apr-15 14:00N 37°48' W 122°17'0 0.0
2019-Apr-15 13:24N 37°48' W 122°17'0 0.0
2019-Apr-15 12:56N 37°48' W 122°17'0 0.0
2019-Apr-15 12:23N 37°48' W 122°17'0 0.0
2019-Apr-15 11:48N 37°48' W 122°17'0 0.0
2019-Apr-15 11:23N 37°48' W 122°17'0 0.0
2019-Apr-15 10:50N 37°48' W 122°17'0 0.0
2019-Apr-15 10:29N 37°48' W 122°17'0 0.0
2019-Apr-15 09:59N 37°48' W 122°17'0 0.0
2019-Apr-15 09:26N 37°48' W 122°17'0 0.0
2019-Apr-15 08:59N 37°48' W 122°17'0 0.0
2019-Apr-15 08:26N 37°48' W 122°17'0 0.0
2019-Apr-15 07:59N 37°48' W 122°17'0 0.0
2019-Apr-15 07:17N 37°48' W 122°17'0 0.0
2019-Apr-15 06:59N 37°48' W 122°17'0 0.0
2019-Apr-15 06:29N 37°48' W 122°17'0 0.0
2019-Apr-15 05:47N 37°48' W 122°17'0 0.0
2019-Apr-15 05:29N 37°48' W 122°17'0 0.0
2019-Apr-15 04:45N 37°48' W 122°17'0 0.0
2019-Apr-15 04:23N 37°48' W 122°17'0 0.0
2019-Apr-15 03:53N 37°48' W 122°17'0 0.0
2019-Apr-15 03:29N 37°48' W 122°17'0 0.0
2019-Apr-15 02:53N 37°48' W 122°17'0 0.0
2019-Apr-15 02:29N 37°48' W 122°17'0 0.0
2019-Apr-15 01:59N 37°48' W 122°17'0 0.0
2019-Apr-15 01:29N 37°48' W 122°17'0 0.0
2019-Apr-15 00:53N 37°48' W 122°17'  

Dump ship's entire track history